sensor_id;sensor_type;location;lat;lon;timestamp;temperature;humidity
32749;DHT22;19119;52.474;13.710;2022-09-09T00:03:53;15.60;99.90
32749;DHT22;19119;52.474;13.710;2022-09-09T00:06:32;15.60;99.90
32749;DHT22;19119;52.474;13.710;2022-09-09T00:09:02;15.60;99.90
32749;DHT22;19119;52.474;13.710;2022-09-09T00:11:45;15.60;99.90
32749;DHT22;19119;52.474;13.710;2022-09-09T00:16:53;15.50;99.90
32749;DHT22;19119;52.474;13.710;2022-09-09T00:19:46;15.40;99.90
32749;DHT22;19119;52.474;13.710;2022-09-09T00:22:33;15.40;99.90
32749;DHT22;19119;52.474;13.710;2022-09-09T00:25:12;15.30;99.90
32749;DHT22;19119;52.474;13.710;2022-09-09T00:27:46;15.30;99.90
32749;DHT22;19119;52.474;13.710;2022-09-09T00:30:25;15.30;99.90
32749;DHT22;19119;52.474;13.710;2022-09-09T00:32:55;15.30;99.90
32749;DHT22;19119;52.474;13.710;2022-09-09T00:35:47;15.30;99.90
32749;DHT22;19119;52.474;13.710;2022-09-09T00:41:19;15.20;99.90
32749;DHT22;19119;52.474;13.710;2022-09-09T00:43:55;15.20;99.90
32749;DHT22;19119;52.474;13.710;2022-09-09T00:57:40;15.10;99.90
32749;DHT22;19119;52.474;13.710;2022-09-09T01:06:01;15.00;99.90
32749;DHT22;19119;52.474;13.710;2022-09-09T01:11:21;15.00;99.90
32749;DHT22;19119;52.474;13.710;2022-09-09T01:14:05;14.90;99.90
32749;DHT22;19119;52.474;13.710;2022-09-09T01:16:35;14.90;99.90
32749;DHT22;19119;52.474;13.710;2022-09-09T01:19:01;14.90;99.90
32749;DHT22;19119;52.474;13.710;2022-09-09T01:21:50;14.80;99.90
32749;DHT22;19119;52.474;13.710;2022-09-09T01:24:30;14.80;99.90
32749;DHT22;19119;52.474;13.710;2022-09-09T01:27:03;14.80;99.90
32749;DHT22;19119;52.474;13.710;2022-09-09T01:29:29;14.70;99.90
32749;DHT22;19119;52.474;13.710;2022-09-09T01:32:00;14.60;99.90
32749;DHT22;19119;52.474;13.710;2022-09-09T01:34:33;14.60;99.90
32749;DHT22;19119;52.474;13.710;2022-09-09T01:37:10;14.50;99.90
32749;DHT22;19119;52.474;13.710;2022-09-09T01:39:38;14.40;99.90
32749;DHT22;19119;52.474;13.710;2022-09-09T01:42:06;14.50;99.90
32749;DHT22;19119;52.474;13.710;2022-09-09T01:44:34;14.50;99.90
32749;DHT22;19119;52.474;13.710;2022-09-09T01:47:01;14.50;99.90
32749;DHT22;19119;52.474;13.710;2022-09-09T01:49:27;14.40;99.90
32749;DHT22;19119;52.474;13.710;2022-09-09T01:51:54;14.30;99.90
32749;DHT22;19119;52.474;13.710;2022-09-09T01:54:23;14.30;99.90
32749;DHT22;19119;52.474;13.710;2022-09-09T01:57:10;14.40;99.90
32749;DHT22;19119;52.474;13.710;2022-09-09T01:59:47;14.30;99.90
32749;DHT22;19119;52.474;13.710;2022-09-09T02:02:18;14.30;99.90
32749;DHT22;19119;52.474;13.710;2022-09-09T02:04:49;14.30;99.90
32749;DHT22;19119;52.474;13.710;2022-09-09T02:07:28;14.20;99.90
32749;DHT22;19119;52.474;13.710;2022-09-09T02:10:02;14.20;99.90
32749;DHT22;19119;52.474;13.710;2022-09-09T02:12:31;14.20;99.90
32749;DHT22;19119;52.474;13.710;2022-09-09T02:15:06;14.20;99.90
32749;DHT22;19119;52.474;13.710;2022-09-09T02:17:36;14.10;99.90
32749;DHT22;19119;52.474;13.710;2022-09-09T02:20:12;14.10;99.90
32749;DHT22;19119;52.474;13.710;2022-09-09T02:22:40;14.00;99.90
32749;DHT22;19119;52.474;13.710;2022-09-09T02:25:09;14.00;99.90
32749;DHT22;19119;52.474;13.710;2022-09-09T02:27:35;14.00;99.90
32749;DHT22;19119;52.474;13.710;2022-09-09T02:30:02;14.00;99.90
32749;DHT22;19119;52.474;13.710;2022-09-09T02:32:31;13.90;99.90
32749;DHT22;19119;52.474;13.710;2022-09-09T02:35:05;13.90;99.90
32749;DHT22;19119;52.474;13.710;2022-09-09T02:37:42;13.80;99.90
32749;DHT22;19119;52.474;13.710;2022-09-09T02:40:10;13.80;99.90
32749;DHT22;19119;52.474;13.710;2022-09-09T02:42:47;13.80;99.90
32749;DHT22;19119;52.474;13.710;2022-09-09T02:45:19;13.80;99.90
32749;DHT22;19119;52.474;13.710;2022-09-09T02:51:07;13.70;99.90
32749;DHT22;19119;52.474;13.710;2022-09-09T02:53:43;13.70;99.90
32749;DHT22;19119;52.474;13.710;2022-09-09T02:56:16;13.70;99.90
32749;DHT22;19119;52.474;13.710;2022-09-09T02:58:43;13.60;99.90
32749;DHT22;19119;52.474;13.710;2022-09-09T03:01:09;13.60;99.90
32749;DHT22;19119;52.474;13.710;2022-09-09T03:03:34;13.70;99.90
32749;DHT22;19119;52.474;13.710;2022-09-09T03:06:01;13.60;99.90
32749;DHT22;19119;52.474;13.710;2022-09-09T03:08:26;13.70;99.90
32749;DHT22;19119;52.474;13.710;2022-09-09T03:10:54;13.70;99.90
32749;DHT22;19119;52.474;13.710;2022-09-09T03:13:20;13.70;99.90
32749;DHT22;19119;52.474;13.710;2022-09-09T03:15:47;13.60;99.90
32749;DHT22;19119;52.474;13.710;2022-09-09T03:18:13;13.60;99.90
32749;DHT22;19119;52.474;13.710;2022-09-09T03:20:39;13.60;99.90
32749;DHT22;19119;52.474;13.710;2022-09-09T03:23:07;13.60;99.90
32749;DHT22;19119;52.474;13.710;2022-09-09T03:25:32;13.50;99.90
32749;DHT22;19119;52.474;13.710;2022-09-09T03:27:59;13.60;99.90
32749;DHT22;19119;52.474;13.710;2022-09-09T03:30:26;13.50;99.90
32749;DHT22;19119;52.474;13.710;2022-09-09T03:32:52;13.50;99.90
32749;DHT22;19119;52.474;13.710;2022-09-09T03:35:18;13.40;99.90
32749;DHT22;19119;52.474;13.710;2022-09-09T03:37:44;13.40;99.90
32749;DHT22;19119;52.474;13.710;2022-09-09T03:40:10;13.30;99.90
32749;DHT22;19119;52.474;13.710;2022-09-09T03:42:39;13.40;99.90
32749;DHT22;19119;52.474;13.710;2022-09-09T03:45:09;13.40;99.90
32749;DHT22;19119;52.474;13.710;2022-09-09T03:47:36;13.40;99.90
32749;DHT22;19119;52.474;13.710;2022-09-09T03:50:01;13.40;99.90
32749;DHT22;19119;52.474;13.710;2022-09-09T03:52:27;13.40;99.90
32749;DHT22;19119;52.474;13.710;2022-09-09T03:54:54;13.40;99.90
32749;DHT22;19119;52.474;13.710;2022-09-09T03:57:20;13.30;99.90
32749;DHT22;19119;52.474;13.710;2022-09-09T03:59:46;13.30;99.90
32749;DHT22;19119;52.474;13.710;2022-09-09T04:02:12;13.30;99.90
32749;DHT22;19119;52.474;13.710;2022-09-09T04:04:37;13.30;99.90
32749;DHT22;19119;52.474;13.710;2022-09-09T04:07:03;13.30;99.90
32749;DHT22;19119;52.474;13.710;2022-09-09T04:09:31;13.20;99.90
32749;DHT22;19119;52.474;13.710;2022-09-09T04:11:56;13.20;99.90
32749;DHT22;19119;52.474;13.710;2022-09-09T04:14:22;13.20;99.90
32749;DHT22;19119;52.474;13.710;2022-09-09T04:16:47;13.20;99.90
32749;DHT22;19119;52.474;13.710;2022-09-09T04:19:13;13.20;99.90
32749;DHT22;19119;52.474;13.710;2022-09-09T04:21:40;13.10;99.90
32749;DHT22;19119;52.474;13.710;2022-09-09T04:24:07;13.10;99.90
32749;DHT22;19119;52.474;13.710;2022-09-09T04:26:33;13.20;99.90
32749;DHT22;19119;52.474;13.710;2022-09-09T04:28:59;13.20;99.90
32749;DHT22;19119;52.474;13.710;2022-09-09T04:31:24;13.20;99.90
32749;DHT22;19119;52.474;13.710;2022-09-09T04:33:50;13.20;99.90
32749;DHT22;19119;52.474;13.710;2022-09-09T04:36:16;13.10;99.90
32749;DHT22;19119;52.474;13.710;2022-09-09T04:38:43;13.10;99.90
32749;DHT22;19119;52.474;13.710;2022-09-09T04:41:09;13.10;99.90
32749;DHT22;19119;52.474;13.710;2022-09-09T04:43:36;13.10;99.90
32749;DHT22;19119;52.474;13.710;2022-09-09T04:46:02;13.00;99.90
32749;DHT22;19119;52.474;13.710;2022-09-09T04:48:28;13.00;99.90
32749;DHT22;19119;52.474;13.710;2022-09-09T04:51:09;13.00;99.90
32749;DHT22;19119;52.474;13.710;2022-09-09T04:53:35;13.00;99.90
32749;DHT22;19119;52.474;13.710;2022-09-09T04:56:12;13.10;99.90
32749;DHT22;19119;52.474;13.710;2022-09-09T04:58:39;13.10;99.90
32749;DHT22;19119;52.474;13.710;2022-09-09T05:01:06;13.10;99.90
32749;DHT22;19119;52.474;13.710;2022-09-09T05:03:31;13.20;99.90
32749;DHT22;19119;52.474;13.710;2022-09-09T05:08:30;13.40;99.90
32749;DHT22;19119;52.474;13.710;2022-09-09T05:10:55;13.60;99.90
32749;DHT22;19119;52.474;13.710;2022-09-09T05:13:21;13.80;99.90
32749;DHT22;19119;52.474;13.710;2022-09-09T05:15:54;14.00;99.90
32749;DHT22;19119;52.474;13.710;2022-09-09T05:18:20;14.10;99.90
32749;DHT22;19119;52.474;13.710;2022-09-09T05:20:46;14.30;99.90
32749;DHT22;19119;52.474;13.710;2022-09-09T05:23:12;14.50;99.90
32749;DHT22;19119;52.474;13.710;2022-09-09T05:25:39;14.70;99.90
32749;DHT22;19119;52.474;13.710;2022-09-09T05:28:06;14.70;99.90
32749;DHT22;19119;52.474;13.710;2022-09-09T05:30:33;14.80;99.90
32749;DHT22;19119;52.474;13.710;2022-09-09T05:32:59;14.90;99.90
32749;DHT22;19119;52.474;13.710;2022-09-09T05:35:24;15.00;99.90
32749;DHT22;19119;52.474;13.710;2022-09-09T05:37:50;15.10;99.90
32749;DHT22;19119;52.474;13.710;2022-09-09T05:40:15;15.00;99.90
32749;DHT22;19119;52.474;13.710;2022-09-09T05:42:41;15.10;99.90
32749;DHT22;19119;52.474;13.710;2022-09-09T05:45:08;15.00;99.90
32749;DHT22;19119;52.474;13.710;2022-09-09T05:47:35;15.10;99.90
32749;DHT22;19119;52.474;13.710;2022-09-09T05:50:02;15.10;99.90
32749;DHT22;19119;52.474;13.710;2022-09-09T05:52:28;15.00;99.90
32749;DHT22;19119;52.474;13.710;2022-09-09T05:54:54;15.10;99.90
32749;DHT22;19119;52.474;13.710;2022-09-09T05:57:21;15.20;99.90
32749;DHT22;19119;52.474;13.710;2022-09-09T05:59:47;15.20;99.90
32749;DHT22;19119;52.474;13.710;2022-09-09T06:02:12;15.30;99.90
32749;DHT22;19119;52.474;13.710;2022-09-09T06:04:38;15.40;99.90
32749;DHT22;19119;52.474;13.710;2022-09-09T06:07:04;15.70;99.90
32749;DHT22;19119;52.474;13.710;2022-09-09T06:09:30;15.80;99.90
32749;DHT22;19119;52.474;13.710;2022-09-09T06:11:56;16.00;99.90
32749;DHT22;19119;52.474;13.710;2022-09-09T06:14:23;16.20;99.90
32749;DHT22;19119;52.474;13.710;2022-09-09T06:16:49;16.30;99.90
32749;DHT22;19119;52.474;13.710;2022-09-09T06:19:15;16.40;99.90
32749;DHT22;19119;52.474;13.710;2022-09-09T06:21:40;16.50;99.90
32749;DHT22;19119;52.474;13.710;2022-09-09T06:24:06;16.60;99.90
32749;DHT22;19119;52.474;13.710;2022-09-09T06:26:37;16.70;99.90
32749;DHT22;19119;52.474;13.710;2022-09-09T06:29:04;16.70;99.90
32749;DHT22;19119;52.474;13.710;2022-09-09T06:31:32;17.00;99.90
32749;DHT22;19119;52.474;13.710;2022-09-09T06:33:59;17.00;99.90
32749;DHT22;19119;52.474;13.710;2022-09-09T06:36:28;17.10;99.90
32749;DHT22;19119;52.474;13.710;2022-09-09T06:38:54;17.10;99.90
32749;DHT22;19119;52.474;13.710;2022-09-09T06:41:22;17.10;99.90
32749;DHT22;19119;52.474;13.710;2022-09-09T06:43:48;17.30;99.90
32749;DHT22;19119;52.474;13.710;2022-09-09T06:46:14;17.20;99.90
32749;DHT22;19119;52.474;13.710;2022-09-09T06:48:41;17.40;99.90
32749;DHT22;19119;52.474;13.710;2022-09-09T06:51:09;17.60;99.90
32749;DHT22;19119;52.474;13.710;2022-09-09T06:53:37;17.80;99.90
32749;DHT22;19119;52.474;13.710;2022-09-09T06:56:32;17.60;99.90
32749;DHT22;19119;52.474;13.710;2022-09-09T06:59:00;17.80;99.90
32749;DHT22;19119;52.474;13.710;2022-09-09T07:01:34;18.00;99.90
32749;DHT22;19119;52.474;13.710;2022-09-09T07:04:00;18.10;99.90
32749;DHT22;19119;52.474;13.710;2022-09-09T07:06:38;18.10;99.90
32749;DHT22;19119;52.474;13.710;2022-09-09T07:09:08;17.90;99.90
32749;DHT22;19119;52.474;13.710;2022-09-09T07:11:38;18.30;99.90
32749;DHT22;19119;52.474;13.710;2022-09-09T07:14:04;18.40;99.90
32749;DHT22;19119;52.474;13.710;2022-09-09T07:16:29;18.60;99.90
32749;DHT22;19119;52.474;13.710;2022-09-09T07:18:57;18.70;99.90
32749;DHT22;19119;52.474;13.710;2022-09-09T07:21:26;18.70;99.90
32749;DHT22;19119;52.474;13.710;2022-09-09T07:23:53;19.00;99.90
32749;DHT22;19119;52.474;13.710;2022-09-09T07:26:21;19.10;99.90
32749;DHT22;19119;52.474;13.710;2022-09-09T07:28:48;19.00;99.90
32749;DHT22;19119;52.474;13.710;2022-09-09T07:31:20;19.20;99.90
32749;DHT22;19119;52.474;13.710;2022-09-09T07:33:46;19.40;99.90
32749;DHT22;19119;52.474;13.710;2022-09-09T07:36:23;19.50;99.90
32749;DHT22;19119;52.474;13.710;2022-09-09T07:38:54;19.70;99.90
32749;DHT22;19119;52.474;13.710;2022-09-09T07:41:27;19.60;99.90
32749;DHT22;19119;52.474;13.710;2022-09-09T07:43:53;19.50;99.90
32749;DHT22;19119;52.474;13.710;2022-09-09T07:46:23;19.50;99.90
32749;DHT22;19119;52.474;13.710;2022-09-09T07:48:52;20.00;99.90
32749;DHT22;19119;52.474;13.710;2022-09-09T07:51:20;19.80;99.90
32749;DHT22;19119;52.474;13.710;2022-09-09T07:53:48;20.00;99.90
32749;DHT22;19119;52.474;13.710;2022-09-09T07:56:15;20.10;99.90
32749;DHT22;19119;52.474;13.710;2022-09-09T07:58:47;20.10;99.90
32749;DHT22;19119;52.474;13.710;2022-09-09T08:01:36;20.30;99.90
32749;DHT22;19119;52.474;13.710;2022-09-09T08:04:08;20.50;99.90
32749;DHT22;19119;52.474;13.710;2022-09-09T08:06:45;20.60;99.90
32749;DHT22;19119;52.474;13.710;2022-09-09T08:09:12;20.60;99.90
32749;DHT22;19119;52.474;13.710;2022-09-09T08:11:39;20.90;99.90
32749;DHT22;19119;52.474;13.710;2022-09-09T08:14:05;21.00;99.90
32749;DHT22;19119;52.474;13.710;2022-09-09T08:16:34;21.00;99.90
32749;DHT22;19119;52.474;13.710;2022-09-09T08:19:02;21.10;99.90
32749;DHT22;19119;52.474;13.710;2022-09-09T08:21:30;21.20;99.90
32749;DHT22;19119;52.474;13.710;2022-09-09T08:23:58;20.90;99.90
32749;DHT22;19119;52.474;13.710;2022-09-09T08:28:54;20.00;99.90
32749;DHT22;19119;52.474;13.710;2022-09-09T08:31:26;20.30;99.90
32749;DHT22;19119;52.474;13.710;2022-09-09T08:33:53;20.80;99.90
32749;DHT22;19119;52.474;13.710;2022-09-09T08:36:21;21.20;99.90
32749;DHT22;19119;52.474;13.710;2022-09-09T08:38:48;21.30;99.90
32749;DHT22;19119;52.474;13.710;2022-09-09T08:44:23;20.70;99.90
32749;DHT22;19119;52.474;13.710;2022-09-09T08:50:13;20.60;99.90
32749;DHT22;19119;52.474;13.710;2022-09-09T08:55:44;20.60;99.90
32749;DHT22;19119;52.474;13.710;2022-09-09T08:58:19;20.50;99.90
32749;DHT22;19119;52.474;13.710;2022-09-09T09:11:47;21.60;99.90
32749;DHT22;19119;52.474;13.710;2022-09-09T09:14:23;22.00;99.90
32749;DHT22;19119;52.474;13.710;2022-09-09T09:17:07;21.60;99.90
32749;DHT22;19119;52.474;13.710;2022-09-09T09:19:35;21.70;99.90
32749;DHT22;19119;52.474;13.710;2022-09-09T09:22:23;22.10;99.90
32749;DHT22;19119;52.474;13.710;2022-09-09T09:24:56;22.40;99.90
32749;DHT22;19119;52.474;13.710;2022-09-09T09:30:12;23.20;99.90
32749;DHT22;19119;52.474;13.710;2022-09-09T09:32:41;23.20;99.90
32749;DHT22;19119;52.474;13.710;2022-09-09T09:35:12;22.90;99.90
32749;DHT22;19119;52.474;13.710;2022-09-09T09:37:40;22.60;99.90
32749;DHT22;19119;52.474;13.710;2022-09-09T09:40:16;22.90;99.90
32749;DHT22;19119;52.474;13.710;2022-09-09T09:42:57;23.20;99.90
32749;DHT22;19119;52.474;13.710;2022-09-09T09:45:43;22.90;99.90
32749;DHT22;19119;52.474;13.710;2022-09-09T09:48:12;23.00;99.90
32749;DHT22;19119;52.474;13.710;2022-09-09T09:51:01;23.00;99.90
32749;DHT22;19119;52.474;13.710;2022-09-09T09:53:32;23.20;99.90
32749;DHT22;19119;52.474;13.710;2022-09-09T09:56:09;23.50;99.90
32749;DHT22;19119;52.474;13.710;2022-09-09T10:01:22;24.10;99.90
32749;DHT22;19119;52.474;13.710;2022-09-09T10:03:55;24.00;99.90
32749;DHT22;19119;52.474;13.710;2022-09-09T10:06:33;24.00;99.90
32749;DHT22;19119;52.474;13.710;2022-09-09T10:08:59;24.50;99.90
32749;DHT22;19119;52.474;13.710;2022-09-09T10:11:35;24.40;99.90
32749;DHT22;19119;52.474;13.710;2022-09-09T10:14:21;24.50;99.90
32749;DHT22;19119;52.474;13.710;2022-09-09T10:17:20;25.00;99.90
32749;DHT22;19119;52.474;13.710;2022-09-09T10:31:44;25.60;99.90
32749;DHT22;19119;52.474;13.710;2022-09-09T10:36:42;26.50;99.90
32749;DHT22;19119;52.474;13.710;2022-09-09T10:39:34;26.30;99.90
32749;DHT22;19119;52.474;13.710;2022-09-09T10:42:07;26.20;99.90
32749;DHT22;19119;52.474;13.710;2022-09-09T10:44:52;26.30;99.90
32749;DHT22;19119;52.474;13.710;2022-09-09T10:50:27;25.50;99.90
32749;DHT22;19119;52.474;13.710;2022-09-09T10:55:44;24.90;99.90
32749;DHT22;19119;52.474;13.710;2022-09-09T10:58:16;24.00;99.90
32749;DHT22;19119;52.474;13.710;2022-09-09T11:00:53;24.00;99.90
32749;DHT22;19119;52.474;13.710;2022-09-09T11:03:22;24.30;99.90
32749;DHT22;19119;52.474;13.710;2022-09-09T11:05:53;24.50;99.90
32749;DHT22;19119;52.474;13.710;2022-09-09T11:08:24;24.50;99.90
32749;DHT22;19119;52.474;13.710;2022-09-09T11:11:17;23.90;99.90
32749;DHT22;19119;52.474;13.710;2022-09-09T11:13:55;23.90;99.90
32749;DHT22;19119;52.474;13.710;2022-09-09T11:16:45;24.70;99.90
32749;DHT22;19119;52.474;13.710;2022-09-09T11:21:52;26.20;99.90
32749;DHT22;19119;52.474;13.710;2022-09-09T11:24:38;26.00;99.90
32749;DHT22;19119;52.474;13.710;2022-09-09T11:27:29;26.40;99.90
32749;DHT22;19119;52.474;13.710;2022-09-09T11:30:17;26.10;99.90
32749;DHT22;19119;52.474;13.710;2022-09-09T11:33:05;26.00;99.90
32749;DHT22;19119;52.474;13.710;2022-09-09T11:38:50;26.50;99.90
32749;DHT22;19119;52.474;13.710;2022-09-09T11:41:17;26.80;99.90
32749;DHT22;19119;52.474;13.710;2022-09-09T11:43:46;27.40;99.90
32749;DHT22;19119;52.474;13.710;2022-09-09T11:46:18;26.60;99.90
32749;DHT22;19119;52.474;13.710;2022-09-09T11:48:56;25.70;99.90
32749;DHT22;19119;52.474;13.710;2022-09-09T11:51:26;25.70;99.90
32749;DHT22;19119;52.474;13.710;2022-09-09T11:54:29;25.80;99.90
32749;DHT22;19119;52.474;13.710;2022-09-09T11:56:55;25.80;99.90
32749;DHT22;19119;52.474;13.710;2022-09-09T11:59:22;25.40;99.90
32749;DHT22;19119;52.474;13.710;2022-09-09T12:06:56;24.80;99.90
32749;DHT22;19119;52.474;13.710;2022-09-09T12:14:55;24.10;99.90
32749;DHT22;19119;52.474;13.710;2022-09-09T12:17:25;24.50;99.90
32749;DHT22;19119;52.474;13.710;2022-09-09T12:20:11;25.40;99.90
32749;DHT22;19119;52.474;13.710;2022-09-09T12:22:45;25.90;99.90
32749;DHT22;19119;52.474;13.710;2022-09-09T12:27:59;25.30;99.90
32749;DHT22;19119;52.474;13.710;2022-09-09T12:30:47;25.90;99.90
32749;DHT22;19119;52.474;13.710;2022-09-09T12:33:17;25.70;99.90
32749;DHT22;19119;52.474;13.710;2022-09-09T12:35:47;26.00;99.90
32749;DHT22;19119;52.474;13.710;2022-09-09T12:38:19;26.60;99.90
32749;DHT22;19119;52.474;13.710;2022-09-09T12:40:55;27.00;99.90
32749;DHT22;19119;52.474;13.710;2022-09-09T12:43:24;26.80;99.90
32749;DHT22;19119;52.474;13.710;2022-09-09T12:45:59;26.50;99.90
32749;DHT22;19119;52.474;13.710;2022-09-09T12:48:33;26.80;99.90
32749;DHT22;19119;52.474;13.710;2022-09-09T12:51:00;26.50;99.90
32749;DHT22;19119;52.474;13.710;2022-09-09T12:53:36;26.60;99.90
32749;DHT22;19119;52.474;13.710;2022-09-09T12:56:07;26.90;99.90
32749;DHT22;19119;52.474;13.710;2022-09-09T12:58:33;27.00;99.90
32749;DHT22;19119;52.474;13.710;2022-09-09T13:01:02;27.60;99.90
32749;DHT22;19119;52.474;13.710;2022-09-09T13:03:31;27.20;99.90
32749;DHT22;19119;52.474;13.710;2022-09-09T13:06:12;26.70;99.90
32749;DHT22;19119;52.474;13.710;2022-09-09T13:08:39;26.90;99.90
32749;DHT22;19119;52.474;13.710;2022-09-09T13:11:22;26.40;99.90
32749;DHT22;19119;52.474;13.710;2022-09-09T13:13:54;26.00;99.90
32749;DHT22;19119;52.474;13.710;2022-09-09T13:16:27;25.80;99.90
32749;DHT22;19119;52.474;13.710;2022-09-09T13:19:07;25.80;99.90
32749;DHT22;19119;52.474;13.710;2022-09-09T13:21:35;25.50;99.90
32749;DHT22;19119;52.474;13.710;2022-09-09T13:24:04;25.50;99.90
32749;DHT22;19119;52.474;13.710;2022-09-09T13:26:33;25.50;99.90
32749;DHT22;19119;52.474;13.710;2022-09-09T13:29:16;25.60;99.90
32749;DHT22;19119;52.474;13.710;2022-09-09T13:31:45;25.50;99.90
32749;DHT22;19119;52.474;13.710;2022-09-09T13:34:27;25.40;99.90
32749;DHT22;19119;52.474;13.710;2022-09-09T13:37:05;24.70;99.90
32749;DHT22;19119;52.474;13.710;2022-09-09T13:39:36;24.90;99.90
32749;DHT22;19119;52.474;13.710;2022-09-09T13:42:03;25.00;99.90
32749;DHT22;19119;52.474;13.710;2022-09-09T13:44:33;24.80;99.90
32749;DHT22;19119;52.474;13.710;2022-09-09T13:47:05;24.80;99.90
32749;DHT22;19119;52.474;13.710;2022-09-09T13:49:31;24.70;99.90
32749;DHT22;19119;52.474;13.710;2022-09-09T13:52:24;24.70;99.90
32749;DHT22;19119;52.474;13.710;2022-09-09T13:54:52;24.70;99.90
32749;DHT22;19119;52.474;13.710;2022-09-09T13:57:22;24.40;99.90
32749;DHT22;19119;52.474;13.710;2022-09-09T13:59:50;24.50;99.90
32749;DHT22;19119;52.474;13.710;2022-09-09T14:02:16;24.70;99.90
32749;DHT22;19119;52.474;13.710;2022-09-09T14:04:42;24.80;99.90
32749;DHT22;19119;52.474;13.710;2022-09-09T14:07:12;24.40;99.90
32749;DHT22;19119;52.474;13.710;2022-09-09T14:09:39;24.50;99.90
32749;DHT22;19119;52.474;13.710;2022-09-09T14:12:08;24.40;99.90
32749;DHT22;19119;52.474;13.710;2022-09-09T14:14:34;24.40;99.90
32749;DHT22;19119;52.474;13.710;2022-09-09T14:17:00;24.30;99.90
32749;DHT22;19119;52.474;13.710;2022-09-09T14:19:25;24.10;99.90
32749;DHT22;19119;52.474;13.710;2022-09-09T14:21:51;24.10;99.90
32749;DHT22;19119;52.474;13.710;2022-09-09T14:24:17;24.20;99.90
32749;DHT22;19119;52.474;13.710;2022-09-09T14:26:42;24.10;99.90
32749;DHT22;19119;52.474;13.710;2022-09-09T14:29:08;24.20;99.90
32749;DHT22;19119;52.474;13.710;2022-09-09T14:31:34;24.10;99.90
32749;DHT22;19119;52.474;13.710;2022-09-09T14:33:59;24.30;99.90
32749;DHT22;19119;52.474;13.710;2022-09-09T14:36:25;24.30;99.90
32749;DHT22;19119;52.474;13.710;2022-09-09T14:38:51;24.50;99.90
32749;DHT22;19119;52.474;13.710;2022-09-09T14:41:18;24.50;99.90
32749;DHT22;19119;52.474;13.710;2022-09-09T14:43:45;24.70;99.90
32749;DHT22;19119;52.474;13.710;2022-09-09T14:46:13;24.70;99.90
32749;DHT22;19119;52.474;13.710;2022-09-09T14:48:39;24.80;99.90
32749;DHT22;19119;52.474;13.710;2022-09-09T14:51:13;24.80;99.90
32749;DHT22;19119;52.474;13.710;2022-09-09T14:53:41;24.90;99.90
32749;DHT22;19119;52.474;13.710;2022-09-09T14:56:18;24.90;99.90
32749;DHT22;19119;52.474;13.710;2022-09-09T14:58:44;24.90;99.90
32749;DHT22;19119;52.474;13.710;2022-09-09T15:01:18;24.90;99.90
32749;DHT22;19119;52.474;13.710;2022-09-09T15:03:50;25.00;99.90
32749;DHT22;19119;52.474;13.710;2022-09-09T15:06:17;25.00;99.90
32749;DHT22;19119;52.474;13.710;2022-09-09T15:08:43;24.90;99.90
32749;DHT22;19119;52.474;13.710;2022-09-09T15:11:10;25.00;99.90
32749;DHT22;19119;52.474;13.710;2022-09-09T15:13:37;24.90;99.90
32749;DHT22;19119;52.474;13.710;2022-09-09T15:16:09;24.70;99.90
32749;DHT22;19119;52.474;13.710;2022-09-09T15:18:35;24.60;99.90
32749;DHT22;19119;52.474;13.710;2022-09-09T15:21:03;24.60;99.90
32749;DHT22;19119;52.474;13.710;2022-09-09T15:23:31;24.40;99.90
32749;DHT22;19119;52.474;13.710;2022-09-09T15:25:57;24.30;99.90
32749;DHT22;19119;52.474;13.710;2022-09-09T15:28:23;24.40;99.90
32749;DHT22;19119;52.474;13.710;2022-09-09T15:30:52;24.50;99.90
32749;DHT22;19119;52.474;13.710;2022-09-09T15:33:22;24.50;99.90
32749;DHT22;19119;52.474;13.710;2022-09-09T15:35:48;24.50;99.90
32749;DHT22;19119;52.474;13.710;2022-09-09T15:38:14;24.20;99.90
32749;DHT22;19119;52.474;13.710;2022-09-09T15:40:40;24.00;99.90
32749;DHT22;19119;52.474;13.710;2022-09-09T15:43:06;23.90;99.90
32749;DHT22;19119;52.474;13.710;2022-09-09T15:45:33;23.90;99.90
32749;DHT22;19119;52.474;13.710;2022-09-09T15:48:02;24.00;99.90
32749;DHT22;19119;52.474;13.710;2022-09-09T15:50:28;23.90;99.90
32749;DHT22;19119;52.474;13.710;2022-09-09T15:52:56;23.80;99.90
32749;DHT22;19119;52.474;13.710;2022-09-09T15:55:22;23.70;99.90
32749;DHT22;19119;52.474;13.710;2022-09-09T15:57:50;23.50;99.90
32749;DHT22;19119;52.474;13.710;2022-09-09T16:00:18;23.10;99.90
32749;DHT22;19119;52.474;13.710;2022-09-09T16:02:44;22.90;99.90
32749;DHT22;19119;52.474;13.710;2022-09-09T16:05:09;22.50;99.90
32749;DHT22;19119;52.474;13.710;2022-09-09T16:07:35;22.40;99.90
32749;DHT22;19119;52.474;13.710;2022-09-09T16:10:01;22.20;99.90
32749;DHT22;19119;52.474;13.710;2022-09-09T16:12:27;22.00;99.90
32749;DHT22;19119;52.474;13.710;2022-09-09T16:14:53;21.90;99.90
32749;DHT22;19119;52.474;13.710;2022-09-09T16:17:18;22.00;99.90
32749;DHT22;19119;52.474;13.710;2022-09-09T16:19:45;21.90;99.90
32749;DHT22;19119;52.474;13.710;2022-09-09T16:22:11;21.80;99.90
32749;DHT22;19119;52.474;13.710;2022-09-09T16:24:37;21.70;99.90
32749;DHT22;19119;52.474;13.710;2022-09-09T16:27:02;21.70;99.90
32749;DHT22;19119;52.474;13.710;2022-09-09T16:29:28;21.60;99.90
32749;DHT22;19119;52.474;13.710;2022-09-09T16:31:54;21.40;99.90
32749;DHT22;19119;52.474;13.710;2022-09-09T16:34:20;21.30;99.90
32749;DHT22;19119;52.474;13.710;2022-09-09T16:36:47;21.10;99.90
32749;DHT22;19119;52.474;13.710;2022-09-09T16:39:22;20.80;99.90
32749;DHT22;19119;52.474;13.710;2022-09-09T16:41:48;20.80;99.90
32749;DHT22;19119;52.474;13.710;2022-09-09T16:44:16;20.60;99.90
32749;DHT22;19119;52.474;13.710;2022-09-09T16:46:44;20.50;99.90
32749;DHT22;19119;52.474;13.710;2022-09-09T16:49:12;20.50;99.90
32749;DHT22;19119;52.474;13.710;2022-09-09T16:51:44;20.50;99.90
32749;DHT22;19119;52.474;13.710;2022-09-09T16:54:10;20.40;99.90
32749;DHT22;19119;52.474;13.710;2022-09-09T16:56:38;20.30;99.90
32749;DHT22;19119;52.474;13.710;2022-09-09T16:59:17;20.20;99.90
32749;DHT22;19119;52.474;13.710;2022-09-09T17:01:44;20.30;99.90
32749;DHT22;19119;52.474;13.710;2022-09-09T17:04:13;20.20;99.90
32749;DHT22;19119;52.474;13.710;2022-09-09T17:06:41;20.10;99.90
32749;DHT22;19119;52.474;13.710;2022-09-09T17:09:09;20.10;99.90
32749;DHT22;19119;52.474;13.710;2022-09-09T17:11:36;20.00;99.90
32749;DHT22;19119;52.474;13.710;2022-09-09T17:14:02;19.80;99.90
32749;DHT22;19119;52.474;13.710;2022-09-09T17:16:32;19.80;99.90